Time;durP1;ratioP1;P1;durP2;ratioP2;P2;SDS_P1;SDS_P2;PMS_P1;PMS_P2;Temp;Humidity;BMP_temperature;BMP_pressure;BME280_temperature;BME280_humidity;BME280_pressure;Samples;Min_cycle;Max_cycle;Signal;HPM_P1;HPM_P2
2022/05/12 00:00:12;;;;;;;;;;;23.70;45.70;;;;;;6185041;28;19929;-52
2022/05/12 00:03:16;;;;;;;;;;;23.60;45.70;;;;;;6158402;28;20168;-52
2022/05/12 00:06:18;;;;;;;;;;;23.40;45.60;;;;;;6176636;28;19921;-50
2022/05/12 00:09:20;;;;;;;;;;;23.60;45.60;;;;;;6175449;28;19929;-51
2022/05/12 00:12:23;;;;;;;;;;;23.50;46.20;;;;;;6186675;28;19921;-51
2022/05/12 00:15:25;;;;;;;;;;;23.30;45.50;;;;;;6173177;28;19925;-55
2022/05/12 00:18:27;;;;;;;;;;;23.90;45.80;;;;;;6166490;28;19980;-50
2022/05/12 00:21:28;;;;;;;;;;;23.50;45.60;;;;;;6188538;28;19921;-48
2022/05/12 00:24:30;;;;;;;;;;;23.40;45.50;;;;;;6188643;28;19921;-52
2022/05/12 00:27:32;;;;;;;;;;;23.60;45.60;;;;;;6184588;28;19925;-54
2022/05/12 00:30:33;;;;;;;;;;;23.50;45.60;;;;;;6187315;28;20074;-51
2022/05/12 00:33:35;;;;;;;;;;;23.60;45.60;;;;;;6177327;28;21054;-54
2022/05/12 00:36:36;;;;;;;;;;;23.60;45.60;;;;;;6177729;28;19936;-50
2022/05/12 00:39:38;;;;;;;;;;;23.60;45.60;;;;;;6170117;28;20010;-51
2022/05/12 00:42:52;;;;;;;;;;;23.70;45.70;;;;;;6195351;28;19932;-51
2022/05/12 00:45:54;;;;;;;;;;;23.60;45.70;;;;;;6180344;28;19929;-52
2022/05/12 00:48:58;;;;;;;;;;;23.80;45.70;;;;;;6198181;28;19956;-50
2022/05/12 00:52:06;;;;;;;;;;;23.60;45.60;;;;;;6192025;28;19921;-50
2022/05/12 00:55:09;;;;;;;;;;;23.40;45.50;;;;;;6192656;28;19964;-50
2022/05/12 00:58:13;;;;;;;;;;;23.60;45.60;;;;;;6170865;28;19929;-53
2022/05/12 01:01:14;;;;;;;;;;;23.60;45.60;;;;;;6189591;28;20052;-51
2022/05/12 01:04:17;;;;;;;;;;;23.50;45.60;;;;;;6193911;28;19921;-53
2022/05/12 01:07:19;;;;;;;;;;;23.40;45.50;;;;;;6188997;28;20007;-51
2022/05/12 01:10:21;;;;;;;;;;;23.40;45.50;;;;;;6190333;28;19975;-53
2022/05/12 01:13:23;;;;;;;;;;;23.30;45.40;;;;;;6188616;28;19928;-51
2022/05/12 01:16:33;;;;;;;;;;;23.40;45.50;;;;;;6196081;28;19935;-47
2022/05/12 01:19:36;;;;;;;;;;;23.40;45.50;;;;;;6176826;28;19983;-52
2022/05/12 01:22:41;;;;;;;;;;;24.00;45.80;;;;;;6189659;28;20033;-52
2022/05/12 01:25:43;;;;;;;;;;;23.30;45.40;;;;;;6192357;28;19921;-52
2022/05/12 01:28:45;;;;;;;;;;;23.50;45.50;;;;;;6192082;28;19929;-50
2022/05/12 01:31:46;;;;;;;;;;;23.10;45.30;;;;;;6194556;28;19956;-51
2022/05/12 01:34:48;;;;;;;;;;;23.40;45.50;;;;;;6197414;28;19937;-51
2022/05/12 01:37:50;;;;;;;;;;;23.30;45.40;;;;;;6192239;28;20031;-53
2022/05/12 01:40:52;;;;;;;;;;;23.50;45.60;;;;;;6178559;28;19975;-52
2022/05/12 01:43:53;;;;;;;;;;;23.10;45.40;;;;;;6198151;28;19934;-52
2022/05/12 01:46:56;;;;;;;;;;;23.50;45.50;;;;;;6196184;28;19931;-53
2022/05/12 01:49:57;;;;;;;;;;;23.20;45.40;;;;;;6193309;28;19976;-51
2022/05/12 01:52:59;;;;;;;;;;;23.30;45.40;;;;;;6199229;28;19960;-52
2022/05/12 01:56:01;;;;;;;;;;;23.40;45.60;;;;;;6198604;28;19925;-51
2022/05/12 01:59:02;;;;;;;;;;;23.80;45.70;;;;;;6195052;28;20815;-52
2022/05/12 02:02:03;;;;;;;;;;;23.20;45.40;;;;;;6194117;28;19928;-48
2022/05/12 02:05:05;;;;;;;;;;;23.30;45.50;;;;;;6193335;28;19932;-54
2022/05/12 02:08:09;;;;;;;;;;;23.40;45.40;;;;;;6179625;28;19932;-54
2022/05/12 02:11:11;;;;;;;;;;;23.20;45.40;;;;;;6194565;28;19921;-51
2022/05/12 02:14:12;;;;;;;;;;;23.20;45.40;;;;;;6197185;28;20024;-53
2022/05/12 02:17:14;;;;;;;;;;;23.40;45.50;;;;;;6191310;28;19979;-53
2022/05/12 02:20:16;;;;;;;;;;;23.10;45.30;;;;;;6188931;28;19929;-53
2022/05/12 02:23:17;;;;;;;;;;;23.40;45.50;;;;;;6191420;28;20053;-51
2022/05/12 02:26:19;;;;;;;;;;;23.60;45.60;;;;;;6174570;28;20110;-52
2022/05/12 02:29:21;;;;;;;;;;;23.40;45.50;;;;;;6190080;28;19992;-53
2022/05/12 02:32:22;;;;;;;;;;;23.20;45.40;;;;;;6178153;28;20640;-53
2022/05/12 02:35:24;;;;;;;;;;;23.30;45.50;;;;;;6179688;28;20019;-53
2022/05/12 02:38:26;;;;;;;;;;;23.20;45.40;;;;;;6189678;28;19927;-50
2022/05/12 02:41:27;;;;;;;;;;;23.30;45.50;;;;;;6191138;28;19929;-53
2022/05/12 02:44:29;;;;;;;;;;;23.00;45.30;;;;;;6192578;28;20002;-51
2022/05/12 02:47:30;;;;;;;;;;;23.30;45.60;;;;;;6193039;28;20136;-51
2022/05/12 02:50:32;;;;;;;;;;;23.10;45.40;;;;;;6193757;28;20114;-50
2022/05/12 02:53:33;;;;;;;;;;;23.20;45.50;;;;;;6175903;28;19995;-51
2022/05/12 02:56:35;;;;;;;;;;;23.20;45.40;;;;;;6192553;28;19932;-54
2022/05/12 02:59:37;;;;;;;;;;;23.00;45.40;;;;;;6192532;28;20861;-52
2022/05/12 03:02:38;;;;;;;;;;;23.20;45.50;;;;;;6197354;28;19959;-50
2022/05/12 03:05:41;;;;;;;;;;;23.00;45.40;;;;;;6192033;28;19925;-50
2022/05/12 03:08:44;;;;;;;;;;;23.30;45.60;;;;;;6178062;28;19925;-52
2022/05/12 03:11:46;;;;;;;;;;;23.30;45.60;;;;;;6190745;28;20103;-51
2022/05/12 03:14:47;;;;;;;;;;;23.20;45.40;;;;;;6195154;28;21045;-53
2022/05/12 03:17:49;;;;;;;;;;;23.30;45.50;;;;;;6192355;28;19929;-50
2022/05/12 03:20:50;;;;;;;;;;;22.90;45.40;;;;;;6197654;28;20043;-50
2022/05/12 03:23:57;;;;;;;;;;;23.20;45.50;;;;;;6195451;28;20032;-49
2022/05/12 03:26:59;;;;;;;;;;;23.20;45.50;;;;;;6192856;28;20019;-51
2022/05/12 03:30:01;;;;;;;;;;;23.40;45.60;;;;;;6190447;28;20040;-50
2022/05/12 03:33:02;;;;;;;;;;;23.40;45.60;;;;;;6191559;28;19967;-51
2022/05/12 03:36:04;;;;;;;;;;;23.30;45.60;;;;;;6189566;28;19929;-49
2022/05/12 03:39:07;;;;;;;;;;;23.00;45.30;;;;;;6192652;28;20797;-50
2022/05/12 03:42:12;;;;;;;;;;;22.90;45.30;;;;;;6189677;28;20926;-53
2022/05/12 03:45:14;;;;;;;;;;;22.90;45.30;;;;;;6194285;28;19921;-48
2022/05/12 03:48:15;;;;;;;;;;;23.20;45.40;;;;;;6193653;28;19929;-48
2022/05/12 03:51:17;;;;;;;;;;;23.00;45.30;;;;;;6185996;28;19928;-50
2022/05/12 03:54:19;;;;;;;;;;;23.20;45.40;;;;;;6173985;28;19979;-50
2022/05/12 03:57:22;;;;;;;;;;;23.30;45.60;;;;;;6192304;28;20022;-48
2022/05/12 04:00:24;;;;;;;;;;;23.30;45.50;;;;;;6186711;28;20031;-49
2022/05/12 04:03:26;;;;;;;;;;;23.40;45.60;;;;;;6172843;28;19933;-51
2022/05/12 04:06:28;;;;;;;;;;;23.10;45.40;;;;;;6197595;28;19933;-52
2022/05/12 04:09:30;;;;;;;;;;;22.80;45.20;;;;;;6187179;28;19928;-49
2022/05/12 04:12:32;;;;;;;;;;;23.10;45.50;;;;;;6196160;28;20044;-50
2022/05/12 04:15:33;;;;;;;;;;;22.80;45.30;;;;;;6197981;28;19929;-53
2022/05/12 04:18:35;;;;;;;;;;;23.10;45.40;;;;;;6192394;28;19921;-51
2022/05/12 04:21:37;;;;;;;;;;;22.90;45.30;;;;;;6194304;28;19928;-50
2022/05/12 04:24:39;;;;;;;;;;;23.20;45.50;;;;;;6180702;28;20838;-46
2022/05/12 04:27:41;;;;;;;;;;;23.20;45.40;;;;;;6192570;28;20284;-49
2022/05/12 04:30:42;;;;;;;;;;;22.90;45.30;;;;;;6181982;28;20725;-48
2022/05/12 04:36:57;;;;;;;;;;;23.10;45.30;;;;;;6182147;28;19921;-51
2022/05/12 04:40:03;;;;;;;;;;;22.90;45.30;;;;;;6189909;28;20890;-49
2022/05/12 04:43:05;;;;;;;;;;;23.20;45.40;;;;;;6176266;28;20104;-50
2022/05/12 04:46:07;;;;;;;;;;;22.70;45.20;;;;;;6192621;28;19929;-49
2022/05/12 04:49:10;;;;;;;;;;;23.20;45.50;;;;;;6195678;28;19932;-49
2022/05/12 04:52:12;;;;;;;;;;;22.90;45.30;;;;;;6190182;28;19936;-49
2022/05/12 04:55:14;;;;;;;;;;;23.30;45.60;;;;;;6189755;28;20042;-49
2022/05/12 04:58:16;;;;;;;;;;;23.20;45.40;;;;;;6187195;28;20841;-51
2022/05/12 05:01:18;;;;;;;;;;;23.60;45.60;;;;;;6188855;28;20048;-49
2022/05/12 05:04:20;;;;;;;;;;;22.60;45.20;;;;;;6188806;28;20682;-49
2022/05/12 05:07:22;;;;;;;;;;;22.90;45.30;;;;;;6185414;28;19936;-51
2022/05/12 05:10:25;;;;;;;;;;;22.70;45.10;;;;;;6188930;28;20043;-47
2022/05/12 05:13:27;;;;;;;;;;;23.30;45.50;;;;;;6187780;28;19932;-48
2022/05/12 05:16:29;;;;;;;;;;;23.10;45.30;;;;;;6192267;28;20843;-49
2022/05/12 05:19:31;;;;;;;;;;;22.90;45.30;;;;;;6189693;28;19968;-49
2022/05/12 05:22:33;;;;;;;;;;;22.80;45.20;;;;;;6188919;28;19995;-50
2022/05/12 05:25:34;;;;;;;;;;;23.20;45.50;;;;;;6195220;28;19921;-47
2022/05/12 05:28:37;;;;;;;;;;;23.00;45.30;;;;;;6183347;28;20858;-50
2022/05/12 05:31:39;;;;;;;;;;;23.70;45.60;;;;;;6185384;28;20154;-47
2022/05/12 05:34:40;;;;;;;;;;;22.80;45.20;;;;;;6188824;28;19936;-49
2022/05/12 05:37:42;;;;;;;;;;;23.10;45.40;;;;;;6187643;28;19921;-51
2022/05/12 05:40:44;;;;;;;;;;;23.20;45.40;;;;;;6165702;28;19929;-49
2022/05/12 05:43:49;;;;;;;;;;;23.10;45.40;;;;;;6183061;28;19928;-49
2022/05/12 05:46:50;;;;;;;;;;;22.70;45.10;;;;;;6158340;28;20884;-49
2022/05/12 05:49:52;;;;;;;;;;;23.10;45.30;;;;;;6170194;28;19925;-48
2022/05/12 05:56:09;;;;;;;;;;;22.90;45.10;;;;;;6180051;28;19935;-49
2022/05/12 05:59:12;;;;;;;;;;;23.20;45.20;;;;;;6178474;28;20044;-48
2022/05/12 06:02:13;;;;;;;;;;;23.30;45.30;;;;;;6164009;28;19929;-48
2022/05/12 06:05:17;;;;;;;;;;;23.20;45.50;;;;;;6160348;28;20956;-50
2022/05/12 06:08:20;;;;;;;;;;;23.20;45.20;;;;;;6174974;28;20043;-47
2022/05/12 06:11:27;;;;;;;;;;;23.00;45.10;;;;;;6157323;28;19948;-49
2022/05/12 06:14:30;;;;;;;;;;;22.90;45.00;;;;;;6172996;28;19929;-50
2022/05/12 06:17:31;;;;;;;;;;;23.00;45.00;;;;;;6151876;28;20477;-47
2022/05/12 06:20:33;;;;;;;;;;;23.10;45.10;;;;;;6128146;28;19929;-49
2022/05/12 06:23:34;;;;;;;;;;;23.20;45.10;;;;;;6151560;28;19975;-50
2022/05/12 06:26:36;;;;;;;;;;;23.10;45.10;;;;;;6138805;28;19998;-46
2022/05/12 06:29:37;;;;;;;;;;;23.20;45.10;;;;;;6127578;28;21369;-49
2022/05/12 06:32:39;;;;;;;;;;;23.20;45.10;;;;;;6139133;28;19929;-48
2022/05/12 06:35:41;;;;;;;;;;;23.10;45.10;;;;;;6129586;28;19929;-48
2022/05/12 06:38:42;;;;;;;;;;;22.90;45.10;;;;;;6138182;28;20205;-50
2022/05/12 06:41:44;;;;;;;;;;;23.40;45.50;;;;;;6123679;28;19928;-50
2022/05/12 06:44:50;;;;;;;;;;;23.10;45.30;;;;;;6124931;28;20043;-50
2022/05/12 06:47:52;;;;;;;;;;;23.10;45.30;;;;;;6105863;28;19935;-51
2022/05/12 06:50:54;;;;;;;;;;;23.20;45.40;;;;;;6066166;28;19971;-48
2022/05/12 06:53:55;;;;;;;;;;;23.10;45.40;;;;;;6047228;28;19928;-49
2022/05/12 06:56:57;;;;;;;;;;;22.90;45.30;;;;;;6035780;28;24904;-51
2022/05/12 06:59:59;;;;;;;;;;;23.20;45.60;;;;;;6018760;28;20026;-53
2022/05/12 07:03:00;;;;;;;;;;;23.00;45.40;;;;;;6000032;28;19979;-54
2022/05/12 07:06:09;;;;;;;;;;;23.10;45.60;;;;;;5984009;28;19972;-51
2022/05/12 07:09:10;;;;;;;;;;;23.00;45.60;;;;;;5979631;28;19976;-54
2022/05/12 07:12:12;;;;;;;;;;;23.00;45.50;;;;;;5969507;28;19945;-53
2022/05/12 07:15:14;;;;;;;;;;;23.00;45.70;;;;;;5995894;28;19975;-55
2022/05/12 07:18:16;;;;;;;;;;;22.80;45.50;;;;;;5986325;28;19929;-52
2022/05/12 07:27:48;;;;;;;;;;;22.60;45.50;;;;;;5886752;28;19929;-50
2022/05/12 07:34:12;;;;;;;;;;;22.70;45.60;;;;;;5898954;28;19935;-50
2022/05/12 07:37:15;;;;;;;;;;;22.90;45.80;;;;;;5979841;28;19976;-56
2022/05/12 07:40:16;;;;;;;;;;;22.60;45.60;;;;;;5928145;28;19937;-50
2022/05/12 07:43:18;;;;;;;;;;;22.90;45.90;;;;;;5959538;28;19929;-49
2022/05/12 07:46:21;;;;;;;;;;;22.60;45.60;;;;;;5932960;28;25223;-51
2022/05/12 07:49:23;;;;;;;;;;;23.00;45.70;;;;;;5942157;28;19929;-53
2022/05/12 07:52:26;;;;;;;;;;;22.70;45.40;;;;;;5944366;28;19936;-53
2022/05/12 07:55:28;;;;;;;;;;;22.70;45.40;;;;;;5946808;28;19928;-50
2022/05/12 07:58:30;;;;;;;;;;;23.10;45.40;;;;;;5950834;28;19952;-52
2022/05/12 08:01:32;;;;;;;;;;;23.10;45.50;;;;;;5921973;28;19935;-51
2022/05/12 08:04:37;;;;;;;;;;;23.00;45.20;;;;;;5936722;28;19933;-50
2022/05/12 08:07:38;;;;;;;;;;;22.90;45.20;;;;;;5942430;28;19968;-53
2022/05/12 08:10:39;;;;;;;;;;;23.10;45.30;;;;;;5961318;28;19936;-51
2022/05/12 08:13:46;;;;;;;;;;;23.30;45.30;;;;;;5943369;28;19937;-53
2022/05/12 08:16:49;;;;;;;;;;;23.20;45.20;;;;;;5937101;28;19936;-53
2022/05/12 08:19:51;;;;;;;;;;;23.30;45.30;;;;;;5915999;28;19992;-51
2022/05/12 08:22:52;;;;;;;;;;;23.20;45.10;;;;;;5924150;28;19937;-49
2022/05/12 08:25:54;;;;;;;;;;;23.50;45.20;;;;;;5944606;28;19936;-52
2022/05/12 08:29:01;;;;;;;;;;;23.20;45.00;;;;;;5952359;28;21490;-50
2022/05/12 08:32:03;;;;;;;;;;;23.10;44.90;;;;;;5933162;28;20071;-54
2022/05/12 08:35:05;;;;;;;;;;;23.30;45.00;;;;;;5906531;28;21365;-55
2022/05/12 08:38:07;;;;;;;;;;;23.50;45.10;;;;;;5915023;28;19932;-52
2022/05/12 08:41:13;;;;;;;;;;;23.20;45.50;;;;;;5915074;28;19929;-54
2022/05/12 08:44:16;;;;;;;;;;;23.30;44.90;;;;;;5959493;28;19968;-54
2022/05/12 08:47:23;;;;;;;;;;;23.50;45.10;;;;;;5957872;28;19999;-51
2022/05/12 08:50:26;;;;;;;;;;;23.40;44.90;;;;;;5928714;28;20023;-50
2022/05/12 08:53:29;;;;;;;;;;;23.00;44.80;;;;;;5908496;28;21802;-51
2022/05/12 08:56:32;;;;;;;;;;;23.50;44.90;;;;;;5940693;28;20985;-50
2022/05/12 08:59:34;;;;;;;;;;;23.60;45.00;;;;;;5901469;28;19936;-52
2022/05/12 09:02:43;;;;;;;;;;;23.50;44.90;;;;;;5906797;28;21964;-49
2022/05/12 09:05:53;;;;;;;;;;;23.50;44.80;;;;;;5884618;28;19929;-55
2022/05/12 09:08:59;;;;;;;;;;;23.60;45.00;;;;;;5915431;28;19929;-49
2022/05/12 09:12:05;;;;;;;;;;;23.70;44.80;;;;;;5921364;28;20063;-49
2022/05/12 09:15:10;;;;;;;;;;;23.60;44.70;;;;;;5934286;28;20059;-52
2022/05/12 09:18:15;;;;;;;;;;;23.60;44.60;;;;;;5928105;28;20689;-49
2022/05/12 09:21:21;;;;;;;;;;;23.60;44.60;;;;;;5953195;28;19936;-48
2022/05/12 09:24:22;;;;;;;;;;;23.60;44.60;;;;;;5952523;28;19933;-48
2022/05/12 09:27:28;;;;;;;;;;;23.50;44.50;;;;;;5959875;28;19936;-48
2022/05/12 09:30:55;;;;;;;;;;;23.70;44.60;;;;;;5930209;28;22676;-51
2022/05/12 09:34:10;;;;;;;;;;;23.80;44.50;;;;;;5976191;28;20067;-52
2022/05/12 09:37:14;;;;;;;;;;;23.70;44.50;;;;;;5945263;28;19929;-50
2022/05/12 09:40:17;;;;;;;;;;;23.90;44.60;;;;;;5978493;28;21214;-53
2022/05/12 09:43:24;;;;;;;;;;;23.90;44.50;;;;;;5951253;28;19959;-52
2022/05/12 09:46:29;;;;;;;;;;;23.70;44.40;;;;;;5977321;28;19933;-50
2022/05/12 09:49:33;;;;;;;;;;;24.00;44.60;;;;;;5944138;28;20008;-50
2022/05/12 09:52:36;;;;;;;;;;;23.90;44.50;;;;;;5978738;28;19935;-54
2022/05/12 09:55:39;;;;;;;;;;;23.90;44.40;;;;;;5975850;28;21076;-50
2022/05/12 09:58:43;;;;;;;;;;;23.90;44.40;;;;;;5962161;28;19929;-48
2022/05/12 10:01:58;;;;;;;;;;;24.00;44.50;;;;;;5949998;28;19929;-51
2022/05/12 10:08:28;;;;;;;;;;;23.80;44.20;;;;;;5951740;28;22491;-51
2022/05/12 10:11:31;;;;;;;;;;;23.80;44.20;;;;;;5984931;28;20019;-51
2022/05/12 10:14:36;;;;;;;;;;;23.80;44.30;;;;;;5988509;28;19936;-49
2022/05/12 10:17:40;;;;;;;;;;;24.10;44.40;;;;;;5958069;28;20071;-48
2022/05/12 10:20:44;;;;;;;;;;;23.80;44.10;;;;;;5938773;28;20930;-50
2022/05/12 10:23:54;;;;;;;;;;;24.40;44.40;;;;;;5917909;28;19929;-51
2022/05/12 10:26:57;;;;;;;;;;;23.80;44.20;;;;;;5992298;28;20875;-50
2022/05/12 10:30:02;;;;;;;;;;;23.90;44.10;;;;;;6028840;28;19932;-50
2022/05/12 10:33:14;;;;;;;;;;;24.10;44.20;;;;;;5999232;28;19935;-51
2022/05/12 10:36:23;;;;;;;;;;;24.20;44.30;;;;;;6022232;28;20079;-49
2022/05/12 10:39:28;;;;;;;;;;;24.00;44.30;;;;;;6020095;28;19929;-48
2022/05/12 10:42:34;;;;;;;;;;;24.10;44.20;;;;;;6070007;28;20959;-51
2022/05/12 10:45:40;;;;;;;;;;;24.10;44.20;;;;;;6051531;28;20074;-49
2022/05/12 10:48:47;;;;;;;;;;;24.10;44.20;;;;;;6034330;28;19945;-48
2022/05/12 10:51:55;;;;;;;;;;;24.10;44.10;;;;;;6050099;28;21672;-47
2022/05/12 10:55:05;;;;;;;;;;;24.10;44.00;;;;;;6075308;28;19999;-49
2022/05/12 10:58:19;;;;;;;;;;;24.20;44.20;;;;;;6060218;28;19936;-47
2022/05/12 11:01:23;;;;;;;;;;;24.10;44.10;;;;;;6072056;28;19936;-49
2022/05/12 11:04:27;;;;;;;;;;;24.10;44.10;;;;;;6047222;28;19963;-48
2022/05/12 11:07:34;;;;;;;;;;;24.10;44.00;;;;;;6082498;28;19929;-47
2022/05/12 11:10:40;;;;;;;;;;;24.30;44.30;;;;;;6091677;28;20058;-51
2022/05/12 11:13:43;;;;;;;;;;;24.20;44.00;;;;;;6079037;28;20143;-50
2022/05/12 11:16:48;;;;;;;;;;;24.00;44.00;;;;;;6068631;28;19995;-49
2022/05/12 11:19:57;;;;;;;;;;;24.20;44.10;;;;;;6070906;28;19929;-47
2022/05/12 11:23:06;;;;;;;;;;;24.20;44.10;;;;;;6067393;28;20982;-49
2022/05/12 11:26:10;;;;;;;;;;;24.20;44.00;;;;;;6066732;28;19929;-48
2022/05/12 11:32:40;;;;;;;;;;;24.20;43.90;;;;;;6064760;28;20135;-53
2022/05/12 11:35:44;;;;;;;;;;;24.20;44.00;;;;;;6034750;28;21437;-53
2022/05/12 11:38:50;;;;;;;;;;;24.30;44.00;;;;;;6009340;28;19928;-50
2022/05/12 11:42:06;;;;;;;;;;;24.20;43.90;;;;;;6022291;28;19929;-51
2022/05/12 11:45:08;;;;;;;;;;;24.20;43.90;;;;;;6008555;28;19936;-48
2022/05/12 11:48:15;;;;;;;;;;;24.00;43.80;;;;;;6003312;28;19928;-48
2022/05/12 11:51:24;;;;;;;;;;;24.10;43.70;;;;;;6010876;28;19928;-52
2022/05/12 11:54:30;;;;;;;;;;;24.20;43.80;;;;;;6000214;28;20233;-52
2022/05/12 11:57:35;;;;;;;;;;;24.20;43.70;;;;;;5982694;28;19970;-52
2022/05/12 12:00:52;;;;;;;;;;;24.20;43.90;;;;;;5971750;28;19964;-51
2022/05/12 12:03:59;;;;;;;;;;;24.20;43.80;;;;;;5910181;28;20060;-49
2022/05/12 12:07:01;;;;;;;;;;;23.90;43.60;;;;;;5933223;28;19999;-49
2022/05/12 12:10:05;;;;;;;;;;;24.20;43.80;;;;;;5922280;28;19929;-51
2022/05/12 12:13:29;;;;;;;;;;;24.00;43.60;;;;;;5952904;28;20055;-48
2022/05/12 12:16:40;;;;;;;;;;;24.00;43.60;;;;;;5936232;28;20065;-51
2022/05/12 12:19:43;;;;;;;;;;;24.20;43.60;;;;;;5951753;28;19929;-51
2022/05/12 12:22:46;;;;;;;;;;;24.10;43.50;;;;;;5933236;28;19984;-47
2022/05/12 12:25:55;;;;;;;;;;;24.20;43.50;;;;;;5943269;28;19936;-48
2022/05/12 12:28:58;;;;;;;;;;;24.30;43.60;;;;;;5899859;28;19930;-47
2022/05/12 12:32:18;;;;;;;;;;;24.30;43.60;;;;;;5954054;28;20064;-51
2022/05/12 12:35:23;;;;;;;;;;;24.30;43.50;;;;;;5946884;28;20070;-50
2022/05/12 12:38:36;;;;;;;;;;;24.30;43.50;;;;;;5950783;28;19929;-50
2022/05/12 12:41:39;;;;;;;;;;;24.20;43.40;;;;;;5962786;28;20006;-47
2022/05/12 12:44:42;;;;;;;;;;;24.30;43.50;;;;;;5931492;28;19936;-52
2022/05/12 12:47:48;;;;;;;;;;;24.20;43.40;;;;;;5946714;28;20786;-47
2022/05/12 12:50:51;;;;;;;;;;;24.30;43.30;;;;;;5979295;28;22174;-46
2022/05/12 12:57:14;;;;;;;;;;;24.30;43.30;;;;;;5950835;28;20415;-46
2022/05/12 13:00:24;;;;;;;;;;;24.20;43.20;;;;;;5947553;28;19933;-47
2022/05/12 13:03:52;;;;;;;;;;;24.30;43.20;;;;;;5883117;28;20051;-48
2022/05/12 13:06:55;;;;;;;;;;;24.30;43.20;;;;;;5896936;28;23702;-49
2022/05/12 13:09:57;;;;;;;;;;;24.30;43.20;;;;;;5912872;28;23678;-51
2022/05/12 13:13:01;;;;;;;;;;;24.30;43.20;;;;;;5909650;28;23118;-49
2022/05/12 13:16:03;;;;;;;;;;;24.30;43.80;;;;;;5922788;28;19933;-48
2022/05/12 13:19:07;;;;;;;;;;;24.60;43.40;;;;;;5913671;28;19929;-49
2022/05/12 13:22:09;;;;;;;;;;;24.30;43.10;;;;;;5925096;28;20011;-46
2022/05/12 13:25:13;;;;;;;;;;;24.30;43.10;;;;;;5933962;28;22627;-49
2022/05/12 13:28:19;;;;;;;;;;;24.30;43.10;;;;;;5947351;28;24119;-50
2022/05/12 13:31:23;;;;;;;;;;;24.30;43.10;;;;;;5965159;28;20010;-51
2022/05/12 13:34:26;;;;;;;;;;;24.30;43.10;;;;;;5936212;28;19929;-48
2022/05/12 13:37:29;;;;;;;;;;;24.00;43.00;;;;;;5881517;28;21401;-47
2022/05/12 13:40:39;;;;;;;;;;;24.30;43.20;;;;;;5936520;28;20060;-49
2022/05/12 13:43:44;;;;;;;;;;;24.30;43.10;;;;;;5937231;28;20055;-50
2022/05/12 13:46:49;;;;;;;;;;;24.30;43.10;;;;;;5954843;28;20266;-47
2022/05/12 13:49:50;;;;;;;;;;;23.90;42.80;;;;;;5936726;28;19936;-47
2022/05/12 13:52:52;;;;;;;;;;;24.30;43.00;;;;;;5951358;28;20153;-49
2022/05/12 13:56:06;;;;;;;;;;;24.20;43.10;;;;;;5950449;28;20071;-48
2022/05/12 13:59:22;;;;;;;;;;;24.30;43.10;;;;;;5924363;28;19936;-49
2022/05/12 14:02:28;;;;;;;;;;;24.20;43.00;;;;;;5918850;28;20878;-51
2022/05/12 14:05:31;;;;;;;;;;;24.20;42.90;;;;;;5920592;28;19929;-50
2022/05/12 14:08:33;;;;;;;;;;;24.20;42.80;;;;;;5938188;28;22051;-50
2022/05/12 14:11:35;;;;;;;;;;;24.30;42.90;;;;;;5960545;28;19941;-51
2022/05/12 14:21:07;;;;;;;;;;;24.60;43.10;;;;;;5947295;28;20539;-48
2022/05/12 14:24:09;;;;;;;;;;;24.30;42.90;;;;;;5949386;28;19929;-50
2022/05/12 14:27:11;;;;;;;;;;;24.20;42.80;;;;;;5945753;28;19929;-48
2022/05/12 14:30:14;;;;;;;;;;;24.20;43.40;;;;;;5901017;28;21389;-49
2022/05/12 14:33:17;;;;;;;;;;;24.30;42.80;;;;;;5911809;28;20071;-53
2022/05/12 14:36:24;;;;;;;;;;;24.50;43.00;;;;;;5918106;28;20531;-48
2022/05/12 14:39:25;;;;;;;;;;;24.20;42.70;;;;;;5959890;28;20601;-53
2022/05/12 14:42:27;;;;;;;;;;;24.30;42.70;;;;;;5947715;28;19929;-47
2022/05/12 14:45:30;;;;;;;;;;;24.30;42.70;;;;;;5949112;28;19935;-48
2022/05/12 14:48:31;;;;;;;;;;;24.30;42.70;;;;;;5945989;28;20010;-50
2022/05/12 14:51:33;;;;;;;;;;;24.50;42.70;;;;;;5957037;28;21047;-50
2022/05/12 14:54:35;;;;;;;;;;;24.30;42.60;;;;;;5974798;28;19929;-48
2022/05/12 14:57:36;;;;;;;;;;;24.20;42.60;;;;;;5961624;28;19929;-51
2022/05/12 15:04:06;;;;;;;;;;;24.20;42.60;;;;;;5943030;28;19929;-46
2022/05/12 15:07:07;;;;;;;;;;;24.70;43.00;;;;;;5919176;28;20003;-52
2022/05/12 15:10:11;;;;;;;;;;;24.00;42.50;;;;;;5945556;28;20509;-52
2022/05/12 15:13:13;;;;;;;;;;;24.20;42.60;;;;;;5989133;28;19937;-48
2022/05/12 15:16:15;;;;;;;;;;;24.30;42.60;;;;;;5978624;28;19929;-48
2022/05/12 15:19:17;;;;;;;;;;;24.00;42.50;;;;;;5994498;28;20004;-47
2022/05/12 15:22:18;;;;;;;;;;;24.20;42.70;;;;;;5981235;28;19952;-48
2022/05/12 15:25:20;;;;;;;;;;;24.10;42.60;;;;;;6013938;28;22054;-48
2022/05/12 15:28:22;;;;;;;;;;;24.20;42.60;;;;;;5995975;28;20044;-49
2022/05/12 15:31:25;;;;;;;;;;;24.20;42.60;;;;;;6000328;28;19929;-51
2022/05/12 15:34:27;;;;;;;;;;;24.20;42.60;;;;;;5986901;28;20243;-51
2022/05/12 15:37:28;;;;;;;;;;;24.40;42.70;;;;;;5980753;28;19929;-52
2022/05/12 15:40:30;;;;;;;;;;;24.20;42.60;;;;;;5988499;28;20071;-50
2022/05/12 15:43:32;;;;;;;;;;;24.30;42.60;;;;;;5999883;28;19981;-46
2022/05/12 15:46:34;;;;;;;;;;;24.30;42.60;;;;;;6010724;28;19933;-50
2022/05/12 15:49:36;;;;;;;;;;;24.00;42.40;;;;;;5994001;28;19929;-51
2022/05/12 15:52:37;;;;;;;;;;;24.30;42.70;;;;;;5995263;28;21300;-50
2022/05/12 15:55:39;;;;;;;;;;;24.20;42.50;;;;;;6025452;28;19935;-48
2022/05/12 15:58:40;;;;;;;;;;;24.10;42.50;;;;;;6010663;28;19985;-50
2022/05/12 16:01:42;;;;;;;;;;;24.20;42.50;;;;;;6012633;28;19928;-49
2022/05/12 16:04:44;;;;;;;;;;;24.20;42.60;;;;;;6025699;28;19929;-52
2022/05/12 16:07:46;;;;;;;;;;;24.20;42.50;;;;;;6021455;28;19967;-48
2022/05/12 16:10:51;;;;;;;;;;;24.10;42.50;;;;;;6015741;28;20086;-49
2022/05/12 16:13:53;;;;;;;;;;;24.00;42.40;;;;;;6022465;28;20044;-46
2022/05/12 16:16:55;;;;;;;;;;;24.20;42.50;;;;;;6013410;28;20634;-51
2022/05/12 16:19:57;;;;;;;;;;;24.30;42.50;;;;;;6026650;28;20039;-51
2022/05/12 16:22:58;;;;;;;;;;;24.20;42.40;;;;;;6050451;28;19936;-51
2022/05/12 16:26:01;;;;;;;;;;;24.20;42.50;;;;;;6042960;28;20146;-50
2022/05/12 16:29:04;;;;;;;;;;;24.00;42.30;;;;;;6047046;28;20008;-53
2022/05/12 16:32:07;;;;;;;;;;;24.20;42.40;;;;;;6047874;28;19936;-55
2022/05/12 16:35:09;;;;;;;;;;;24.20;42.40;;;;;;6064348;28;19975;-50
2022/05/12 16:38:11;;;;;;;;;;;24.30;42.30;;;;;;6063817;28;20416;-56
2022/05/12 16:41:12;;;;;;;;;;;24.20;42.10;;;;;;6084509;28;20508;-50
2022/05/12 16:44:14;;;;;;;;;;;24.80;42.40;;;;;;6087659;28;19930;-47
2022/05/12 16:47:17;;;;;;;;;;;24.50;42.20;;;;;;6089685;28;19936;-50
2022/05/12 16:50:19;;;;;;;;;;;24.30;42.10;;;;;;6107097;28;19952;-48
2022/05/12 16:53:20;;;;;;;;;;;24.40;42.20;;;;;;6108854;28;19929;-51
2022/05/12 16:56:22;;;;;;;;;;;24.30;42.20;;;;;;6088639;28;19933;-52
2022/05/12 16:59:24;;;;;;;;;;;24.30;42.10;;;;;;6094529;28;19929;-51
2022/05/12 17:02:26;;;;;;;;;;;24.40;42.30;;;;;;6091916;28;19935;-50
2022/05/12 17:05:28;;;;;;;;;;;24.30;42.10;;;;;;6096278;28;19936;-51
2022/05/12 17:08:30;;;;;;;;;;;24.30;42.20;;;;;;6092601;28;19964;-51
2022/05/12 17:11:32;;;;;;;;;;;24.30;42.20;;;;;;6097283;28;19929;-52
2022/05/12 17:14:34;;;;;;;;;;;24.40;42.20;;;;;;6075675;28;20140;-50
2022/05/12 17:17:36;;;;;;;;;;;24.30;42.10;;;;;;6089349;28;20041;-49
2022/05/12 17:20:37;;;;;;;;;;;24.40;42.10;;;;;;6130831;28;19980;-49
2022/05/12 17:23:39;;;;;;;;;;;25.40;42.70;;;;;;6122766;28;19933;-53
2022/05/12 17:26:40;;;;;;;;;;;24.40;42.10;;;;;;6151279;28;19932;-52
2022/05/12 17:29:42;;;;;;;;;;;24.40;42.20;;;;;;6150706;28;20027;-50
2022/05/12 17:32:44;;;;;;;;;;;24.50;42.10;;;;;;6146745;28;20067;-51
2022/05/12 17:35:46;;;;;;;;;;;24.30;42.10;;;;;;6145262;28;20019;-51
2022/05/12 17:38:47;;;;;;;;;;;24.30;42.00;;;;;;6140410;28;20080;-51
2022/05/12 17:41:49;;;;;;;;;;;24.40;42.10;;;;;;6147706;28;19925;-48
2022/05/12 17:44:51;;;;;;;;;;;24.50;42.10;;;;;;6166089;28;19936;-53
2022/05/12 17:47:54;;;;;;;;;;;24.20;42.00;;;;;;6169803;28;19924;-47
2022/05/12 17:50:55;;;;;;;;;;;24.50;42.10;;;;;;6157937;28;19971;-53
2022/05/12 17:53:57;;;;;;;;;;;24.50;42.10;;;;;;6144486;28;19929;-50
2022/05/12 17:56:58;;;;;;;;;;;24.50;42.00;;;;;;6157194;28;20048;-52
2022/05/12 18:00:00;;;;;;;;;;;24.50;42.00;;;;;;6154987;28;20071;-50
2022/05/12 18:03:03;;;;;;;;;;;24.60;42.00;;;;;;6166369;28;19929;-53
2022/05/12 18:06:04;;;;;;;;;;;24.30;41.90;;;;;;6166898;28;20701;-51
2022/05/12 18:09:06;;;;;;;;;;;24.50;41.90;;;;;;6162496;28;19929;-49
2022/05/12 18:12:10;;;;;;;;;;;24.70;42.10;;;;;;6157675;28;19976;-49
2022/05/12 18:15:14;;;;;;;;;;;25.30;42.50;;;;;;6118776;28;19999;-50
2022/05/12 18:18:16;;;;;;;;;;;24.50;42.00;;;;;;6164587;28;20945;-52
2022/05/12 18:21:18;;;;;;;;;;;24.60;42.00;;;;;;6168933;28;20744;-50